Decoded Metar for LEMH (MAHON in SPAIN) (IATA:MAH) | Meteo·Mobile Aviation Weather
aviador You're here:

LEMH Decoded Metar

MAHON in SPAIN
Report Time2019-10-19 21:30:00
UTC Time2019-10-19 22:02:56
Flight Rules vfr VFR
Wind190° at 07 kt
W.Decomp.*RWY 19: 7.0 kt HW 0.1 kt LCW
Visibility9999 m
Phenomena:N/A
Clouds:Few 020 Hf
Expected CloudBase > 1,600 ft AGL from Temp-Dew spread
CeilingNone
Temp20°C (ISA +6)
Dew Point16°C (78% RH)
AAT19.5°C
QNH1011 hPa
Density Alt1,227 ft
Elevation269 ft
Report Wrong Elevation
Raw Report
LEMH 192130Z 19007KT 9999 FEW020 20/16 Q1011=

Extra information for LEMH:More info

Metar Taf Metar & Taf Last 4 Metars F.Rules Stats Wind Profile Meteogram Temp Stats Airport Information Weather charts Add Link Nearby VenuesMetar ALERT Operation Metar Decoded Social comments